createdAt,value
2019-01-21T00:00:18.138Z,99.99
2019-01-21T00:01:18.181Z,99.99
2019-01-21T00:02:18.054Z,99.99
2019-01-21T00:03:18.092Z,99.99
2019-01-21T00:04:17.992Z,99.99
2019-01-21T00:05:17.978Z,99.99
2019-01-21T00:06:18.013Z,99.99
2019-01-21T00:07:17.895Z,99.99
2019-01-21T00:08:17.919Z,99.99
2019-01-21T00:09:17.811Z,99.99
2019-01-21T00:10:17.811Z,99.99
2019-01-21T00:11:17.752Z,99.99
2019-01-21T00:12:17.741Z,99.99
2019-01-21T00:13:17.680Z,99.99
2019-01-21T00:14:17.763Z,99.99
2019-01-21T00:15:17.621Z,99.99
2019-01-21T00:16:17.582Z,99.99
2019-01-21T00:17:22.263Z,99.99
2019-01-21T00:18:17.514Z,99.99
2019-01-21T00:19:17.597Z,99.99
2019-01-21T00:20:17.440Z,99.99
2019-01-21T00:21:17.404Z,99.99
2019-01-21T00:22:17.369Z,99.99
2019-01-21T00:23:17.410Z,99.99
2019-01-21T00:24:17.302Z,99.99
2019-01-21T00:25:17.332Z,99.99
2019-01-21T00:26:17.236Z,99.99
2019-01-21T00:27:17.212Z,99.99
2019-01-21T00:28:17.259Z,99.99
2019-01-21T00:29:17.131Z,99.99
2019-01-21T00:30:17.149Z,99.99
2019-01-21T00:31:17.068Z,99.99
2019-01-21T00:32:17.031Z,99.99
2019-01-21T00:33:16.997Z,99.99
2019-01-21T00:34:16.980Z,99.99
2019-01-21T00:35:16.921Z,99.99
2019-01-21T00:36:16.992Z,99.99
2019-01-21T00:37:16.851Z,99.99
2019-01-21T00:38:16.836Z,99.99
2019-01-21T00:39:16.791Z,99.99
2019-01-21T00:40:16.831Z,99.99
2019-01-21T00:41:16.721Z,99.99
2019-01-21T00:42:16.734Z,99.99
2019-01-21T00:43:16.654Z,99.99
2019-01-21T00:44:16.643Z,99.99
2019-01-21T00:45:16.580Z,99.99
2019-01-21T00:46:16.653Z,99.99
2019-01-21T00:47:16.514Z,99.99
2019-01-21T00:48:16.562Z,99.99
2019-01-21T00:49:16.441Z,99.99
2019-01-21T00:50:16.781Z,99.99
2019-01-21T00:51:16.383Z,99.99
2019-01-21T00:52:16.402Z,99.99
2019-01-21T00:53:16.340Z,99.99
2019-01-21T00:54:16.322Z,99.99
2019-01-21T00:55:16.242Z,99.99
2019-01-21T00:56:16.314Z,99.99
2019-01-21T00:57:16.174Z,99.99
2019-01-21T00:58:16.225Z,99.99
2019-01-21T00:59:16.097Z,99.99
2019-01-21T01:00:16.062Z,99.99
2019-01-21T01:01:16.031Z,99.99
2019-01-21T01:02:16.102Z,99.99
2019-01-21T01:03:15.967Z,99.99
2019-01-21T01:04:15.964Z,99.99
2019-01-21T01:05:15.892Z,99.99
2019-01-21T01:06:15.872Z,99.99
2019-01-21T01:07:15.884Z,99.99
2019-01-21T01:08:15.803Z,99.99
2019-01-21T01:09:15.810Z,99.99
2019-01-21T01:10:15.724Z,99.99
2019-01-21T01:11:15.679Z,99.99
2019-01-21T01:12:15.652Z,99.99
2019-01-21T01:13:15.724Z,99.99
2019-01-21T01:14:15.588Z,99.99
2019-01-21T01:15:15.647Z,99.99
2019-01-21T01:16:15.511Z,99.99
2019-01-21T01:17:15.494Z,99.99
2019-01-21T01:18:15.565Z,99.99
2019-01-21T01:19:15.427Z,99.99
2019-01-21T01:20:15.471Z,99.99
2019-01-21T01:21:15.330Z,99.99
2019-01-21T01:22:15.302Z,99.99
2019-01-21T01:23:15.271Z,99.99
2019-01-21T01:24:15.297Z,99.99
2019-01-21T01:25:15.209Z,99.99
2019-01-21T01:26:15.192Z,99.99
2019-01-21T01:27:15.133Z,99.99
2019-01-21T01:28:15.104Z,99.99
2019-01-21T01:29:15.111Z,99.99
2019-01-21T01:30:15.030Z,99.99
2019-01-21T01:31:15.024Z,99.99
2019-01-21T01:32:14.952Z,99.99
2019-01-21T01:33:14.933Z,99.99
2019-01-21T01:34:14.891Z,99.99
2019-01-21T01:35:14.953Z,99.99
2019-01-21T01:36:14.820Z,99.99
2019-01-21T01:37:14.860Z,99.99
2019-01-21T01:38:14.752Z,99.99
2019-01-21T01:39:14.726Z,99.99
2019-01-21T01:40:14.682Z,99.99
2019-01-21T01:41:14.694Z,99.99
2019-01-21T01:42:14.611Z,99.99
2019-01-21T01:43:14.613Z,99.99
2019-01-21T01:44:14.540Z,99.99
2019-01-21T01:45:14.613Z,99.99
2019-01-21T01:46:14.479Z,99.99
2019-01-21T01:47:14.521Z,99.99
2019-01-21T01:48:14.399Z,99.99
2019-01-21T01:49:14.433Z,99.99
2019-01-21T01:50:14.440Z,99.99
2019-01-21T01:51:14.299Z,99.99
2019-01-21T01:52:14.362Z,99.99
2019-01-21T01:53:14.232Z,99.99
2019-01-21T01:54:14.264Z,99.99
2019-01-21T01:55:14.164Z,99.99
2019-01-21T01:56:14.196Z,99.99
2019-01-21T01:57:14.092Z,99.99
2019-01-21T01:58:14.090Z,99.99
2019-01-21T01:59:14.025Z,99.99
2019-01-21T02:00:14.005Z,99.99
2019-01-21T02:01:14.016Z,99.99
2019-01-21T02:02:13.912Z,99.99
2019-01-21T02:03:13.924Z,99.99
2019-01-21T02:04:13.852Z,99.99
2019-01-21T02:05:13.842Z,99.99
2019-01-21T02:06:13.782Z,99.99
2019-01-21T02:07:13.743Z,99.99
2019-01-21T02:08:13.756Z,99.99
2019-01-21T02:09:13.673Z,99.99
2019-01-21T02:10:13.665Z,99.99
2019-01-21T02:11:13.618Z,99.99
2019-01-21T02:12:13.584Z,99.99
2019-01-21T02:13:13.530Z,99.99
2019-01-21T02:14:13.593Z,99.99
2019-01-21T02:15:13.463Z,99.99
2019-01-21T02:16:13.507Z,99.99
2019-01-21T02:17:13.393Z,99.99
2019-01-21T02:18:13.362Z,99.99
2019-01-21T02:19:13.424Z,99.99
2019-01-21T02:20:13.294Z,99.99
2019-01-21T02:21:13.333Z,99.99
2019-01-21T02:22:13.236Z,99.99
2019-01-21T02:23:13.181Z,99.99
2019-01-21T02:24:13.152Z,99.99
2019-01-21T02:25:13.161Z,99.99
2019-01-21T02:26:13.090Z,99.99
2019-01-21T02:27:13.078Z,99.99
2019-01-21T02:28:13.030Z,99.99
2019-01-21T02:29:12.980Z,99.99
2019-01-21T02:30:12.994Z,99.99
2019-01-21T02:31:12.909Z,99.99
2019-01-21T02:32:12.908Z,99.99
2019-01-21T02:33:12.835Z,99.99
2019-01-21T02:34:12.820Z,99.99
2019-01-21T02:35:12.773Z,99.99
2019-01-21T02:36:12.834Z,99.99
2019-01-21T02:37:12.703Z,99.99
2019-01-21T02:38:12.744Z,99.99
2019-01-21T02:39:12.627Z,99.99
2019-01-21T02:40:12.592Z,99.99
2019-01-21T02:41:12.552Z,99.99
2019-01-21T02:42:12.561Z,99.99
2019-01-21T02:43:12.497Z,99.99
2019-01-21T02:44:12.469Z,99.99
2019-01-21T02:45:12.424Z,99.99
2019-01-21T02:46:12.382Z,99.99
2019-01-21T02:47:12.393Z,99.99
2019-01-21T02:48:12.312Z,99.99
2019-01-21T02:49:12.318Z,99.99
2019-01-21T02:50:12.242Z,99.99
2019-01-21T02:51:12.205Z,99.99
2019-01-21T02:52:12.170Z,99.99
2019-01-21T02:53:12.231Z,99.99
2019-01-21T02:54:12.112Z,99.99
2019-01-21T02:55:12.149Z,99.99
2019-01-21T02:56:12.037Z,99.99
2019-01-21T02:57:12.002Z,99.99
2019-01-21T02:58:12.058Z,99.99
2019-01-21T02:59:11.925Z,99.99
2019-01-21T03:00:11.971Z,99.99
2019-01-21T03:01:11.867Z,99.99
2019-01-21T03:02:11.821Z,99.99
2019-01-21T03:03:11.792Z,99.99
2019-01-21T03:04:11.790Z,99.99
2019-01-21T03:05:11.727Z,99.99
2019-01-21T03:06:11.704Z,99.99
2019-01-21T03:07:11.655Z,99.99
2019-01-21T03:08:11.613Z,99.99
2019-01-21T03:09:11.574Z,99.99
2019-01-21T03:10:11.633Z,99.99
2019-01-21T03:11:11.514Z,99.99
2019-01-21T03:12:11.542Z,99.99
2019-01-21T03:13:11.444Z,99.99
2019-01-21T03:14:11.414Z,99.99
2019-01-21T03:15:11.474Z,99.99
2019-01-21T03:16:11.345Z,99.99
2019-01-21T03:17:11.383Z,99.99
2019-01-21T03:18:11.264Z,99.99
2019-01-21T03:19:11.232Z,99.99
2019-01-21T03:20:11.293Z,99.99
2019-01-21T03:21:11.152Z,99.99
2019-01-21T03:22:11.202Z,99.99
2019-01-21T03:23:11.095Z,99.99
2019-01-21T03:24:11.064Z,99.99
2019-01-21T03:25:11.022Z,99.99
2019-01-21T03:26:11.032Z,99.99
2019-01-21T03:27:10.940Z,99.99
2019-01-21T03:28:10.941Z,99.99
2019-01-21T03:29:10.882Z,99.99
2019-01-21T03:30:10.848Z,99.99
2019-01-21T03:31:10.867Z,99.99
2019-01-21T03:32:10.775Z,99.99
2019-01-21T03:33:10.773Z,99.99
2019-01-21T03:34:10.716Z,99.99
2019-01-21T03:35:10.795Z,99.99
2019-01-21T03:36:10.644Z,99.99
2019-01-21T03:37:10.703Z,99.99
2019-01-21T03:38:10.562Z,99.99
2019-01-21T03:39:10.614Z,99.99
2019-01-21T03:40:10.492Z,99.99
2019-01-21T03:41:10.453Z,99.99
2019-01-21T03:42:10.421Z,99.99
2019-01-21T03:43:10.431Z,99.99
2019-01-21T03:44:10.351Z,99.99
2019-01-21T03:45:10.352Z,99.99
2019-01-21T03:46:10.285Z,99.99
2019-01-21T03:47:10.245Z,99.99
2019-01-21T03:48:16.439Z,99.99
2019-01-21T03:49:10.173Z,99.99
2019-01-21T03:50:10.172Z,99.99
2019-01-21T03:51:10.109Z,99.99
2019-01-21T03:52:10.083Z,99.99
2019-01-21T03:53:10.036Z,99.99
2019-01-21T03:54:10.101Z,99.99
2019-01-21T03:55:09.962Z,99.99
2019-01-21T03:56:10.015Z,99.99
2019-01-21T03:57:09.896Z,99.99
2019-01-21T03:58:09.865Z,99.99
2019-01-21T03:59:09.923Z,99.99
2019-01-21T04:00:09.792Z,99.99
2019-01-21T04:01:09.843Z,99.99
2019-01-21T04:02:09.722Z,99.99
2019-01-21T04:03:09.696Z,99.99
2019-01-21T04:04:09.644Z,99.99
2019-01-21T04:05:09.663Z,99.99
2019-01-21T04:06:09.608Z,99.99
2019-01-21T04:07:09.601Z,99.99
2019-01-21T04:08:09.516Z,99.99
2019-01-21T04:09:09.530Z,99.99
2019-01-21T04:10:09.491Z,99.99
2019-01-21T04:11:09.405Z,99.99
2019-01-21T04:12:09.405Z,99.99
2019-01-21T04:13:09.343Z,99.99
2019-01-21T04:14:09.313Z,99.99
2019-01-21T04:15:09.267Z,99.99
2019-01-21T04:16:09.333Z,99.99
2019-01-21T04:17:09.193Z,99.99
2019-01-21T04:18:09.243Z,99.99
2019-01-21T04:19:09.123Z,99.99
2019-01-21T04:20:09.084Z,99.99
2019-01-21T04:21:09.053Z,99.99
2019-01-21T04:22:09.062Z,99.99
2019-01-21T04:23:08.995Z,99.99
2019-01-21T04:24:08.973Z,99.99
2019-01-21T04:25:08.915Z,99.99
2019-01-21T04:26:08.884Z,99.99
2019-01-21T04:27:09.935Z,99.99
2019-01-21T04:28:08.805Z,99.99
2019-01-21T04:29:08.804Z,99.99
2019-01-21T04:30:08.739Z,99.99
2019-01-21T04:31:08.701Z,99.99
2019-01-21T04:32:08.673Z,99.99
2019-01-21T04:33:08.734Z,99.99
2019-01-21T04:34:08.593Z,99.99
2019-01-21T04:35:08.652Z,99.99
2019-01-21T04:36:08.534Z,99.99
2019-01-21T04:37:08.483Z,99.99
2019-01-21T04:38:08.456Z,99.99
2019-01-21T04:39:08.463Z,99.99
2019-01-21T04:40:08.386Z,99.99
2019-01-21T04:41:08.385Z,99.99
2019-01-21T04:42:08.318Z,99.99
2019-01-21T04:43:08.275Z,99.99
2019-01-21T04:44:08.303Z,99.99
2019-01-21T04:45:08.202Z,99.99
2019-01-21T04:46:08.211Z,99.99
2019-01-21T04:47:08.146Z,99.99
2019-01-21T04:48:08.107Z,99.99
2019-01-21T04:49:08.068Z,99.99
2019-01-21T04:50:08.134Z,99.99
2019-01-21T04:51:07.995Z,99.99
2019-01-21T04:52:08.043Z,99.99
2019-01-21T04:53:07.923Z,99.99
2019-01-21T04:54:07.964Z,99.99
2019-01-21T04:55:07.852Z,99.99
2019-01-21T04:56:07.874Z,99.99
2019-01-21T04:57:07.782Z,99.99
2019-01-21T04:58:07.783Z,99.99
2019-01-21T04:59:07.721Z,99.99
2019-01-21T05:00:07.692Z,99.99
2019-01-21T05:01:07.644Z,99.99
2019-01-21T05:02:07.749Z,99.99
2019-01-21T05:03:07.574Z,99.99
2019-01-21T05:04:07.631Z,99.99
2019-01-21T05:05:07.500Z,99.99
2019-01-21T05:06:07.546Z,99.99
2019-01-21T05:07:07.431Z,99.99
2019-01-21T05:08:07.446Z,99.99
2019-01-21T05:09:07.355Z,99.99
2019-01-21T05:10:07.322Z,99.99
2019-01-21T05:11:07.283Z,99.99
2019-01-21T05:12:07.262Z,99.99
2019-01-21T05:13:07.212Z,99.99
2019-01-21T05:14:07.286Z,99.99
2019-01-21T05:15:07.144Z,99.99
2019-01-21T05:16:07.117Z,99.99
2019-01-21T05:17:07.094Z,99.99
2019-01-21T05:18:07.035Z,99.99
2019-01-21T05:19:07.115Z,99.99
2019-01-21T05:20:06.965Z,99.99
2019-01-21T05:21:06.937Z,99.99
2019-01-21T05:22:06.894Z,99.99
2019-01-21T05:23:06.939Z,99.99
2019-01-21T05:24:06.842Z,99.99
2019-01-21T05:25:06.842Z,99.99
2019-01-21T05:26:06.753Z,99.99
2019-01-21T05:27:06.724Z,99.99
2019-01-21T05:28:06.686Z,99.99
2019-01-21T05:29:06.676Z,99.99
2019-01-21T05:30:06.614Z,99.99
2019-01-21T05:31:06.685Z,99.99
2019-01-21T05:32:06.546Z,99.99
2019-01-21T05:33:06.592Z,99.99
2019-01-21T05:34:06.476Z,99.99
2019-01-21T05:35:06.523Z,99.99
2019-01-21T05:36:06.417Z,99.99
2019-01-21T05:37:06.431Z,99.99
2019-01-21T05:38:06.426Z,99.99
2019-01-21T05:39:06.305Z,99.99
2019-01-21T05:40:06.352Z,99.99
2019-01-21T05:41:06.234Z,99.99
2019-01-21T05:42:06.254Z,99.99
2019-01-21T05:43:06.154Z,99.99
2019-01-21T05:44:06.166Z,99.99
2019-01-21T05:45:06.083Z,99.99
2019-01-21T05:46:06.084Z,99.99
2019-01-21T05:47:06.015Z,99.99
2019-01-21T05:48:06.086Z,99.99
2019-01-21T05:49:05.996Z,99.99
2019-01-21T05:50:05.916Z,99.99
2019-01-21T05:51:05.902Z,99.99
2019-01-21T05:52:05.836Z,99.99
2019-01-21T05:53:05.821Z,99.99
2019-01-21T05:54:05.766Z,99.99
2019-01-21T05:55:05.725Z,99.99
2019-01-21T05:56:05.735Z,99.99
2019-01-21T05:57:05.658Z,99.99
2019-01-21T05:58:05.651Z,99.99
2019-01-21T05:59:05.585Z,99.99
2019-01-21T06:00:05.554Z,99.99
2019-01-21T06:01:05.522Z,99.99
2019-01-21T06:02:05.579Z,99.99
2019-01-21T06:03:05.442Z,99.99
2019-01-21T06:04:05.495Z,99.99
2019-01-21T06:05:05.372Z,99.99
2019-01-21T06:06:05.341Z,99.99
2019-01-21T06:07:05.412Z,99.99
2019-01-21T06:08:05.264Z,99.99
2019-01-21T06:09:05.327Z,99.99
2019-01-21T06:10:05.202Z,99.99
2019-01-21T06:11:05.166Z,99.99
2019-01-21T06:12:05.123Z,99.99
2019-01-21T06:13:05.134Z,99.99
2019-01-21T06:14:05.056Z,99.99
2019-01-21T06:15:05.084Z,99.99
2019-01-21T06:16:04.983Z,99.99
2019-01-21T06:17:04.944Z,99.99
2019-01-21T06:18:04.922Z,99.99
2019-01-21T06:19:04.977Z,99.99
2019-01-21T06:20:04.846Z,99.99
2019-01-21T06:21:04.892Z,99.99
2019-01-21T06:22:04.774Z,99.99
2019-01-21T06:23:04.803Z,99.99
2019-01-21T06:24:04.695Z,99.99
2019-01-21T06:25:04.717Z,99.99
2019-01-21T06:26:04.624Z,99.99
2019-01-21T06:27:04.624Z,99.99
2019-01-21T06:28:04.553Z,99.99
2019-01-21T06:29:04.525Z,99.99
2019-01-21T06:30:04.544Z,99.99
2019-01-21T06:31:04.446Z,99.99
2019-01-21T06:32:04.480Z,99.99
2019-01-21T06:33:04.494Z,99.99
2019-01-21T06:34:04.365Z,99.99
2019-01-21T06:35:04.307Z,99.99
2019-01-21T06:36:04.381Z,99.99
2019-01-21T06:37:04.234Z,99.99
2019-01-21T06:38:04.293Z,99.99
2019-01-21T06:39:04.175Z,99.99
2019-01-21T06:40:04.204Z,99.99
2019-01-21T06:41:04.127Z,99.99
2019-01-21T06:42:04.113Z,99.99
2019-01-21T06:43:04.024Z,99.99
2019-01-21T06:44:04.025Z,99.99
2019-01-21T06:45:03.955Z,99.99
2019-01-21T06:46:03.936Z,99.99
2019-01-21T06:47:03.899Z,99.99
2019-01-21T06:48:03.953Z,99.99
2019-01-21T06:49:04.788Z,99.99
2019-01-21T06:50:03.774Z,99.99
2019-01-21T06:51:03.745Z,99.99
2019-01-21T06:52:03.773Z,99.99
2019-01-21T06:53:03.663Z,99.99
2019-01-21T06:54:03.684Z,99.99
2019-01-21T06:55:03.594Z,99.99
2019-01-21T06:56:03.553Z,99.99
2019-01-21T06:57:03.603Z,99.99
2019-01-21T06:58:03.483Z,99.99
2019-01-21T06:59:03.513Z,99.99
2019-01-21T07:00:03.418Z,99.99
2019-01-21T07:01:03.394Z,99.99
2019-01-21T07:02:03.346Z,99.99
2019-01-21T07:03:03.360Z,99.99
2019-01-21T07:04:03.275Z,99.99
2019-01-21T07:05:03.258Z,99.99
2019-01-21T07:06:03.205Z,99.99
2019-01-21T07:07:03.163Z,99.99
2019-01-21T07:08:03.173Z,99.99
2019-01-21T07:09:03.094Z,99.99
2019-01-21T07:10:03.084Z,99.99
2019-01-21T07:11:03.043Z,99.99
2019-01-21T07:12:03.092Z,99.99
2019-01-21T07:13:03.123Z,99.99
2019-01-21T07:14:03.005Z,99.99
2019-01-21T07:15:02.903Z,99.99
2019-01-21T07:16:02.919Z,99.99
2019-01-21T07:17:02.818Z,99.99
2019-01-21T07:18:02.784Z,99.99
2019-01-21T07:19:02.734Z,99.99
2019-01-21T07:20:02.750Z,99.99
2019-01-21T07:21:02.665Z,99.99
2019-01-21T07:22:02.753Z,99.99
2019-01-21T07:23:02.605Z,99.99
2019-01-21T07:24:02.674Z,99.99
2019-01-21T07:25:02.530Z,99.99
2019-01-21T07:26:02.584Z,99.99
2019-01-21T07:27:02.455Z,99.99
2019-01-21T07:28:02.497Z,99.99
2019-01-21T07:29:02.394Z,99.99
2019-01-21T07:30:02.343Z,99.99
2019-01-21T07:31:02.411Z,99.99
2019-01-21T07:32:02.285Z,99.99
2019-01-21T07:33:02.327Z,99.99
2019-01-21T07:34:02.205Z,99.99
2019-01-21T07:35:02.235Z,99.99
2019-01-21T07:36:02.136Z,99.99
2019-01-21T07:37:02.142Z,99.99
2019-01-21T07:38:02.071Z,99.99
2019-01-21T07:39:02.053Z,99.99
2019-01-21T07:40:02.015Z,99.99
2019-01-21T07:41:01.974Z,99.99
2019-01-21T07:42:01.922Z,99.99
2019-01-21T07:43:01.985Z,99.99
2019-01-21T07:44:01.856Z,99.99
2019-01-21T07:45:01.815Z,99.99
2019-01-21T07:46:01.790Z,99.99
2019-01-21T07:47:01.806Z,99.99
2019-01-21T07:48:01.706Z,99.99
2019-01-21T07:49:01.714Z,99.99
2019-01-21T07:50:01.640Z,99.99
2019-01-21T07:51:01.597Z,99.99
2019-01-21T07:52:01.632Z,99.99
2019-01-21T07:53:01.534Z,99.99
2019-01-21T07:54:01.555Z,99.99
2019-01-21T07:55:01.454Z,99.99
2019-01-21T07:56:01.445Z,99.99
2019-01-21T07:57:01.384Z,99.99
2019-01-21T07:58:01.379Z,99.99
2019-01-21T07:59:01.313Z,99.99
2019-01-21T08:00:01.384Z,99.99
2019-01-21T08:01:01.254Z,99.99
2019-01-21T08:02:01.294Z,99.99
2019-01-21T08:03:01.166Z,99.99
2019-01-21T08:04:01.204Z,99.99
2019-01-21T08:05:01.105Z,99.99
2019-01-21T08:06:01.126Z,99.99
2019-01-21T08:07:01.137Z,99.99
2019-01-21T08:08:00.994Z,99.99
2019-01-21T08:09:01.034Z,99.99
2019-01-21T08:10:00.931Z,99.99
2019-01-21T08:11:00.954Z,99.99
2019-01-21T08:12:00.953Z,99.99
2019-01-21T08:13:00.822Z,99.99
2019-01-21T08:14:00.886Z,99.99
2019-01-21T08:15:00.743Z,99.99
2019-01-21T08:16:00.797Z,99.99
2019-01-21T08:17:00.674Z,99.99
2019-01-21T08:18:00.634Z,99.99
2019-01-21T08:19:00.703Z,99.99
2019-01-21T08:20:00.563Z,99.99
2019-01-21T08:21:00.621Z,99.99
2019-01-21T08:22:00.496Z,99.99
2019-01-21T08:23:00.467Z,99.99
2019-01-21T08:24:00.440Z,99.99
2019-01-21T08:25:00.435Z,99.99
2019-01-21T08:26:00.355Z,99.99
2019-01-21T08:27:00.346Z,99.99
2019-01-21T08:28:00.285Z,99.99
2019-01-21T08:29:01.285Z,99.99
2019-01-21T08:30:00.212Z,99.99
2019-01-21T08:31:00.273Z,99.99
2019-01-21T08:32:00.143Z,99.99
2019-01-21T08:33:00.184Z,99.99
2019-01-21T08:34:00.073Z,99.99
2019-01-21T08:35:00.228Z,99.99
2019-01-21T08:36:00.011Z,99.99
2019-01-21T08:37:00.008Z,99.99
2019-01-21T08:37:59.926Z,99.99
2019-01-21T08:38:59.896Z,99.99
2019-01-21T08:39:59.860Z,99.99
2019-01-21T08:40:59.945Z,99.99
2019-01-21T08:41:59.793Z,99.99
2019-01-21T08:42:59.846Z,99.99
2019-01-21T08:43:59.713Z,99.99
2019-01-21T08:44:59.686Z,99.99
2019-01-21T08:45:59.663Z,99.99
2019-01-21T08:46:59.615Z,99.99
2019-01-21T08:47:59.686Z,99.99
2019-01-21T08:48:59.534Z,99.99
2019-01-21T08:49:59.504Z,99.99
2019-01-21T08:50:59.473Z,99.99
2019-01-21T08:51:59.502Z,99.99
2019-01-21T08:52:59.402Z,99.99
2019-01-21T08:53:59.423Z,99.99
2019-01-21T08:54:59.336Z,99.99
2019-01-21T08:55:59.295Z,99.99
2019-01-21T08:56:59.333Z,99.99
2019-01-21T08:57:59.236Z,99.99
2019-01-21T08:58:59.244Z,99.99
2019-01-21T08:59:59.155Z,99.99
2019-01-21T09:00:59.128Z,99.99
2019-01-21T09:01:59.083Z,99.99
2019-01-21T09:02:59.074Z,99.99
2019-01-21T09:03:59.014Z,99.99
2019-01-21T09:04:59.074Z,99.99
2019-01-21T09:05:58.943Z,99.99
2019-01-21T09:07:00.792Z,99.99
2019-01-21T09:07:58.875Z,99.99
2019-01-21T09:08:58.904Z,99.99
2019-01-21T09:09:58.804Z,99.99
2019-01-21T09:10:58.816Z,99.99
2019-01-21T09:11:58.734Z,99.99
2019-01-21T09:12:58.705Z,99.99
2019-01-21T09:13:58.736Z,99.99
2019-01-21T09:14:58.632Z,99.99
2019-01-21T09:15:58.644Z,99.99
2019-01-21T09:16:58.655Z,99.99
2019-01-21T09:17:58.531Z,99.99
2019-01-21T09:18:58.562Z,99.99
2019-01-21T09:19:58.454Z,99.99
2019-01-21T09:20:58.485Z,99.99
2019-01-21T09:21:58.387Z,99.99
2019-01-21T09:22:58.355Z,99.99
2019-01-21T09:23:58.393Z,99.99
2019-01-21T09:24:58.282Z,99.99
2019-01-21T09:25:58.302Z,99.99
2019-01-21T09:26:58.217Z,99.99
2019-01-21T09:27:58.188Z,99.99
2019-01-21T09:28:58.224Z,99.99
2019-01-21T09:29:58.114Z,99.99
2019-01-21T09:30:58.135Z,99.99
2019-01-21T09:31:58.042Z,99.99
2019-01-21T09:32:58.053Z,99.99
2019-01-21T09:33:57.983Z,99.99
2019-01-21T09:34:58.065Z,95.26
2019-01-21T09:35:57.926Z,92.14
2019-01-21T09:36:57.973Z,87.54
2019-01-21T09:37:57.875Z,86.78
2019-01-21T09:38:57.834Z,83.40
2019-01-21T09:39:57.894Z,81.88
2019-01-21T09:40:57.795Z,80.41
2019-01-21T09:41:57.804Z,79.17
2019-01-21T09:42:57.726Z,75.70
2019-01-21T09:43:57.714Z,73.57
2019-01-21T09:44:57.689Z,72.47
2019-01-21T09:45:57.742Z,71.71
2019-01-21T09:46:57.624Z,70.48
2019-01-21T09:47:57.644Z,71.52
2019-01-21T09:48:57.572Z,69.24
2019-01-21T09:49:57.554Z,68.52
2019-01-21T09:50:57.531Z,67.19
2019-01-21T09:51:57.566Z,66.14
2019-01-21T09:52:57.492Z,65.89
2019-01-21T09:53:57.585Z,65.22
2019-01-21T09:54:57.546Z,64.75
2019-01-21T09:55:57.429Z,64.78
2019-01-21T09:56:57.521Z,63.26
2019-01-21T09:57:57.400Z,63.83
2019-01-21T09:58:57.450Z,62.30
2019-01-21T09:59:57.344Z,61.55
2019-01-21T10:00:57.323Z,61.48
2019-01-21T10:01:57.337Z,60.63
2019-01-21T10:02:57.285Z,60.05
2019-01-21T10:03:57.344Z,59.39
2019-01-21T10:04:57.242Z,58.59
2019-01-21T10:05:57.223Z,59.77
2019-01-21T10:06:57.267Z,59.86
2019-01-21T10:07:57.184Z,58.91
2019-01-21T10:08:57.274Z,58.53
2019-01-21T10:09:57.153Z,58.53
2019-01-21T10:11:03.162Z,58.47
2019-01-21T10:11:57.120Z,57.42
2019-01-21T10:12:57.203Z,56.85
2019-01-21T10:13:57.083Z,57.23
2019-01-21T10:14:57.118Z,57.13
2019-01-21T10:15:57.052Z,57.23
2019-01-21T10:16:57.033Z,56.85
2019-01-21T10:17:57.039Z,57.26
2019-01-21T10:18:57.007Z,57.28
2019-01-21T10:19:57.044Z,56.43
2019-01-21T10:20:56.979Z,54.80
2019-01-21T10:21:56.945Z,54.04
2019-01-21T10:22:56.933Z,54.52
2019-01-21T10:23:56.977Z,54.74
2019-01-21T10:24:56.922Z,54.07
2019-01-21T10:25:56.983Z,53.69
2019-01-21T10:26:56.884Z,53.41
2019-01-21T10:27:56.852Z,52.83
2019-01-21T10:28:56.911Z,52.83
2019-01-21T10:29:56.826Z,52.45
2019-01-21T10:30:56.925Z,52.64
2019-01-21T10:31:59.397Z,52.64
2019-01-21T10:32:56.783Z,52.00
2019-01-21T10:33:56.763Z,51.68
2019-01-21T10:34:56.851Z,51.90
2019-01-21T10:35:56.734Z,51.71
2019-01-21T10:36:56.758Z,51.62
2019-01-21T10:37:56.702Z,51.33
2019-01-21T10:38:56.691Z,50.76
2019-01-21T10:39:56.777Z,49.76
2019-01-21T10:40:56.667Z,51.16
2019-01-21T10:41:56.696Z,52.52
2019-01-21T10:42:56.633Z,53.00
2019-01-21T10:43:56.626Z,52.55
2019-01-21T10:44:56.719Z,52.04
2019-01-21T10:45:56.599Z,52.07
2019-01-21T10:46:56.632Z,51.88
2019-01-21T10:47:56.564Z,51.14
2019-01-21T10:48:56.596Z,50.18
2019-01-21T10:49:57.453Z,49.54
2019-01-21T10:50:56.572Z,50.12
2019-01-21T10:51:56.533Z,48.42
2019-01-21T10:52:56.570Z,48.54
2019-01-21T10:53:56.484Z,47.20
2019-01-21T10:54:56.463Z,46.84
2019-01-21T10:55:56.461Z,46.56
2019-01-21T10:56:56.487Z,46.30
2019-01-21T10:57:56.434Z,45.62
2019-01-21T10:58:56.503Z,44.41
2019-01-21T10:59:56.517Z,45.49
2019-01-21T11:00:56.392Z,48.71
2019-01-21T11:01:56.426Z,49.87
2019-01-21T11:02:56.407Z,50.16
2019-01-21T11:03:56.433Z,49.78
2019-01-21T11:04:56.348Z,49.95
2019-01-21T11:05:56.323Z,51.88
2019-01-21T11:06:56.355Z,50.95
2019-01-21T11:07:56.307Z,49.83
2019-01-21T11:08:56.365Z,49.35
2019-01-21T11:09:56.276Z,49.16
2019-01-21T11:10:56.267Z,49.38
2019-01-21T11:11:56.282Z,48.61
2019-01-21T11:12:56.244Z,48.42
2019-01-21T11:13:56.304Z,47.94
2019-01-21T11:14:56.205Z,47.66
2019-01-21T11:15:56.194Z,47.16
2019-01-21T11:16:56.182Z,46.08
2019-01-21T11:17:56.222Z,47.02
2019-01-21T11:18:56.163Z,49.35
2019-01-21T11:19:56.244Z,51.66
2019-01-21T11:20:56.137Z,52.64
2019-01-21T11:21:56.133Z,52.57
2019-01-21T11:22:56.162Z,50.85
2019-01-21T11:23:56.104Z,50.16
2019-01-21T11:24:56.174Z,50.92
2019-01-21T11:25:56.064Z,49.78
2019-01-21T11:26:56.052Z,49.80
2019-01-21T11:27:56.044Z,50.09
2019-01-21T11:28:56.206Z,50.28
2019-01-21T11:29:56.016Z,49.93
2019-01-21T11:30:56.117Z,49.93
2019-01-21T11:31:56.017Z,49.38
2019-01-21T11:32:55.975Z,48.99
2019-01-21T11:33:56.044Z,48.04
2019-01-21T11:34:55.958Z,47.47
2019-01-21T11:35:56.057Z,47.06
2019-01-21T11:36:55.924Z,47.99
2019-01-21T11:37:55.954Z,49.13
2019-01-21T11:38:55.903Z,49.42
2019-01-21T11:39:55.971Z,50.07
2019-01-21T11:40:55.872Z,50.18
2019-01-21T11:41:55.893Z,50.38
2019-01-21T11:42:55.846Z,51.04
2019-01-21T11:43:55.834Z,50.85
2019-01-21T11:44:55.903Z,49.90
2019-01-21T11:45:55.815Z,50.73
2019-01-21T11:46:55.822Z,51.14
2019-01-21T11:47:55.787Z,51.04
2019-01-21T11:48:55.846Z,50.18
2019-01-21T11:49:55.762Z,49.78
2019-01-21T11:50:55.855Z,50.63
2019-01-21T11:51:55.735Z,51.31
2019-01-21T11:52:55.763Z,51.68
2019-01-21T11:53:55.702Z,51.68
2019-01-21T11:54:55.693Z,55.32
2019-01-21T11:55:55.702Z,55.61
2019-01-21T11:56:55.785Z,54.75
2019-01-21T11:57:55.653Z,55.32
2019-01-21T11:58:55.705Z,55.22
2019-01-21T11:59:55.635Z,55.51
2019-01-21T12:00:55.643Z,54.85
2019-01-21T12:01:55.619Z,55.04
2019-01-21T12:02:55.725Z,55.83
2019-01-21T12:03:55.579Z,55.61
2019-01-21T12:04:55.639Z,54.37
2019-01-21T12:05:55.643Z,56.02
2019-01-21T12:06:55.532Z,55.35
2019-01-21T12:07:55.673Z,54.37
2019-01-21T12:08:55.513Z,54.35
2019-01-21T12:09:55.573Z,55.93
2019-01-21T12:10:55.496Z,56.51
2019-01-21T12:11:55.466Z,57.07
2019-01-21T12:12:55.493Z,57.84
2019-01-21T12:13:55.431Z,57.77
2019-01-21T12:14:55.503Z,57.96
2019-01-21T12:15:55.413Z,57.96
2019-01-21T12:16:55.393Z,57.99
2019-01-21T12:17:56.170Z,57.32
2019-01-21T12:18:55.429Z,56.87
2019-01-21T12:19:55.351Z,56.40
2019-01-21T12:20:55.443Z,56.21
2019-01-21T12:21:55.338Z,55.73
2019-01-21T12:22:55.389Z,55.83
2019-01-21T12:23:55.305Z,55.26
2019-01-21T12:24:55.384Z,54.97
2019-01-21T12:25:55.267Z,54.88
2019-01-21T12:26:55.285Z,55.26
2019-01-21T12:27:55.292Z,55.63
2019-01-21T12:28:55.226Z,55.26
2019-01-21T12:29:55.301Z,55.61
2019-01-21T12:30:55.199Z,56.11
2019-01-21T12:31:55.223Z,55.42
2019-01-21T12:32:55.165Z,56.11
2019-01-21T12:33:55.227Z,56.37
2019-01-21T12:34:55.132Z,56.27
2019-01-21T12:35:55.155Z,57.04
2019-01-21T12:36:55.116Z,56.56
2019-01-21T12:37:55.160Z,56.85
2019-01-21T12:38:55.084Z,55.80
2019-01-21T12:39:55.190Z,55.70
2019-01-21T12:40:55.043Z,55.51
2019-01-21T12:41:55.093Z,55.96
2019-01-21T12:42:55.016Z,56.79
2019-01-21T12:43:55.002Z,56.60
2019-01-21T12:44:54.993Z,58.03
2019-01-21T12:45:55.003Z,58.28
2019-01-21T12:46:54.963Z,58.18
2019-01-21T12:47:55.012Z,58.76
2019-01-21T12:48:54.932Z,59.61
2019-01-21T12:49:54.935Z,59.61
2019-01-21T12:50:54.892Z,60.47
2019-01-21T12:51:54.942Z,59.83